createdAt,value
2017-12-24T00:00:47.995Z,9.10
2017-12-24T00:03:14.376Z,9.00
2017-12-24T00:05:40.909Z,9.00
2017-12-24T00:08:07.395Z,9.10
2017-12-24T00:10:40.962Z,9.00
2017-12-24T00:13:07.299Z,9.00
2017-12-24T00:15:33.675Z,9.00
2017-12-24T00:18:00.024Z,9.00
2017-12-24T00:20:26.351Z,8.70
2017-12-24T00:22:52.682Z,8.90
2017-12-24T00:25:19.026Z,8.90
2017-12-24T00:27:45.406Z,8.90
2017-12-24T00:30:11.752Z,8.90
2017-12-24T00:32:38.109Z,8.90
2017-12-24T00:35:04.805Z,9.00
2017-12-24T00:37:31.202Z,9.00
2017-12-24T00:39:58.280Z,8.90
2017-12-24T00:42:24.719Z,8.90
2017-12-24T00:44:51.858Z,8.90
2017-12-24T00:47:18.226Z,8.90
2017-12-24T00:49:45.323Z,8.90
2017-12-24T00:52:11.734Z,8.90
2017-12-24T00:54:38.076Z,9.00
2017-12-24T00:57:04.867Z,9.30
2017-12-24T00:59:31.214Z,8.90
2017-12-24T01:01:57.551Z,8.90
2017-12-24T01:04:23.898Z,8.90
2017-12-24T01:06:50.333Z,8.90
2017-12-24T01:09:16.698Z,8.90
2017-12-24T01:11:43.026Z,8.90
2017-12-24T01:14:10.330Z,8.90
2017-12-24T01:16:36.643Z,8.80
2017-12-24T01:19:03.376Z,8.90
2017-12-24T01:21:31.214Z,8.90
2017-12-24T01:23:57.559Z,8.90
2017-12-24T01:26:24.618Z,8.90
2017-12-24T01:28:51.751Z,8.90
2017-12-24T01:31:18.079Z,8.90
2017-12-24T01:33:44.423Z,8.90
2017-12-24T01:36:10.774Z,8.90
2017-12-24T01:38:38.643Z,8.90
2017-12-24T01:41:05.160Z,8.90
2017-12-24T01:43:32.302Z,8.80
2017-12-24T01:45:58.610Z,8.80
2017-12-24T01:48:24.927Z,8.90
2017-12-24T01:50:51.283Z,8.90
2017-12-24T01:53:17.602Z,8.90
2017-12-24T01:55:43.979Z,8.90
2017-12-24T01:58:11.859Z,8.90
2017-12-24T02:00:38.215Z,8.90
2017-12-24T02:03:05.311Z,8.90
2017-12-24T02:05:31.734Z,8.90
2017-12-24T02:07:58.096Z,8.90
2017-12-24T02:10:24.478Z,9.00
2017-12-24T02:12:50.798Z,8.90
2017-12-24T02:15:17.181Z,8.90
2017-12-24T02:17:44.263Z,8.80
2017-12-24T02:20:11.374Z,8.80
2017-12-24T02:22:37.775Z,8.80
2017-12-24T02:25:04.289Z,8.90
2017-12-24T02:27:30.635Z,8.40
2017-12-24T02:29:56.967Z,8.90
2017-12-24T02:32:23.356Z,8.90
2017-12-24T02:34:49.775Z,8.90
2017-12-24T02:37:16.145Z,8.90
2017-12-24T02:39:42.616Z,8.90
2017-12-24T02:42:08.947Z,8.90
2017-12-24T02:44:35.303Z,8.90
2017-12-24T02:47:01.731Z,8.90
2017-12-24T02:49:28.076Z,8.90
2017-12-24T02:51:54.440Z,8.90
2017-12-24T02:54:20.831Z,8.90
2017-12-24T02:56:47.192Z,8.90
2017-12-24T02:59:13.560Z,8.90
2017-12-24T03:01:39.932Z,8.90
2017-12-24T03:04:06.488Z,8.90
2017-12-24T03:06:33.819Z,8.80
2017-12-24T03:09:00.144Z,8.80
2017-12-24T03:11:26.496Z,8.80
2017-12-24T03:13:52.865Z,8.90
2017-12-24T03:16:19.224Z,8.80
2017-12-24T03:18:45.682Z,8.70
2017-12-24T03:21:12.019Z,9.00
2017-12-24T03:23:38.387Z,8.80
2017-12-24T03:26:05.382Z,8.80
2017-12-24T03:28:33.234Z,8.70
2017-12-24T03:30:59.671Z,8.70
2017-12-24T03:33:26.041Z,8.80
2017-12-24T03:35:52.375Z,8.80
2017-12-24T03:38:18.714Z,8.80
2017-12-24T03:40:45.063Z,8.70
2017-12-24T03:43:11.418Z,8.80
2017-12-24T03:45:37.763Z,8.80
2017-12-24T03:48:04.817Z,8.70
2017-12-24T03:50:31.309Z,8.70
2017-12-24T03:52:58.413Z,8.80
2017-12-24T03:55:24.739Z,8.80
2017-12-24T03:57:51.076Z,8.80
2017-12-24T04:00:17.423Z,8.80
2017-12-24T04:02:43.764Z,8.80
2017-12-24T04:05:10.143Z,8.80
2017-12-24T04:07:36.756Z,8.80
2017-12-24T04:10:03.852Z,8.80
2017-12-24T04:12:30.204Z,8.80
2017-12-24T04:14:57.330Z,8.80
2017-12-24T04:17:23.715Z,8.80
2017-12-24T04:19:50.048Z,8.90
2017-12-24T04:22:16.388Z,8.90
2017-12-24T04:24:42.722Z,8.80
2017-12-24T04:27:10.600Z,8.80
2017-12-24T04:29:36.924Z,8.80
2017-12-24T04:32:04.008Z,8.80
2017-12-24T04:34:30.358Z,8.80
2017-12-24T04:36:56.719Z,8.90
2017-12-24T04:39:23.043Z,8.80
2017-12-24T04:41:49.401Z,8.80
2017-12-24T04:44:15.718Z,8.60
2017-12-24T04:46:42.084Z,8.80
2017-12-24T04:49:08.416Z,8.80
2017-12-24T04:51:34.747Z,8.90
2017-12-24T04:54:01.132Z,8.80
2017-12-24T04:56:27.515Z,8.80
2017-12-24T04:58:53.868Z,8.80
2017-12-24T05:01:20.212Z,8.80
2017-12-24T05:03:46.563Z,8.80
2017-12-24T05:06:13.284Z,8.70
2017-12-24T05:08:40.404Z,8.80
2017-12-24T05:11:06.731Z,8.80
2017-12-24T05:13:33.052Z,8.90
2017-12-24T05:15:59.438Z,8.80
2017-12-24T05:18:25.848Z,8.80
2017-12-24T05:20:52.188Z,8.80
2017-12-24T05:23:18.541Z,8.80
2017-12-24T05:25:44.868Z,8.80
2017-12-24T05:28:11.289Z,8.70
2017-12-24T05:30:37.643Z,8.80
2017-12-24T05:33:04.755Z,8.80
2017-12-24T05:35:31.182Z,8.70
2017-12-24T05:37:57.652Z,8.80
2017-12-24T05:40:24.005Z,8.60
2017-12-24T05:42:50.372Z,8.80
2017-12-24T05:45:16.727Z,8.80
2017-12-24T05:47:43.123Z,8.80
2017-12-24T05:50:09.468Z,8.80
2017-12-24T05:52:43.608Z,8.70
2017-12-24T05:57:50.601Z,8.70
2017-12-24T06:00:16.955Z,8.70
2017-12-24T06:02:43.387Z,8.80
2017-12-24T06:05:10.504Z,8.80
2017-12-24T06:07:36.919Z,8.80
2017-12-24T06:10:04.027Z,8.80
2017-12-24T06:12:30.407Z,8.80
2017-12-24T06:14:56.760Z,8.80
2017-12-24T06:17:23.912Z,8.70
2017-12-24T06:19:50.288Z,8.30
2017-12-24T06:22:16.664Z,8.70
2017-12-24T06:24:43.019Z,8.70
2017-12-24T06:27:09.355Z,8.70
2017-12-24T06:29:35.699Z,8.60
2017-12-24T06:32:02.216Z,8.50
2017-12-24T06:34:28.570Z,8.50
2017-12-24T06:36:54.891Z,8.50
2017-12-24T06:39:21.976Z,8.40
2017-12-24T06:41:48.308Z,8.10
2017-12-24T06:44:15.374Z,8.40
2017-12-24T06:46:41.703Z,8.40
2017-12-24T06:49:08.051Z,8.40
2017-12-24T06:51:34.399Z,8.40
2017-12-24T06:54:00.731Z,8.30
2017-12-24T06:56:27.067Z,8.30
2017-12-24T06:58:53.443Z,8.20
2017-12-24T07:01:20.008Z,8.10
2017-12-24T07:03:46.440Z,8.10
2017-12-24T07:06:12.822Z,8.00
2017-12-24T07:08:39.380Z,7.60
2017-12-24T07:11:05.913Z,7.90
2017-12-24T07:13:32.375Z,7.80
2017-12-24T07:15:58.783Z,7.90
2017-12-24T07:18:25.999Z,7.80
2017-12-24T07:20:53.237Z,7.80
2017-12-24T07:23:20.409Z,7.80
2017-12-24T07:25:52.154Z,7.80
2017-12-24T07:28:18.647Z,7.80
2017-12-24T07:30:45.067Z,7.90
2017-12-24T07:33:11.798Z,7.90
2017-12-24T07:35:38.368Z,7.80
2017-12-24T07:38:05.179Z,7.80
2017-12-24T07:40:31.881Z,7.80
2017-12-24T07:42:58.331Z,7.80
2017-12-24T07:45:24.728Z,7.80
2017-12-24T07:47:51.549Z,7.70
2017-12-24T07:50:17.938Z,7.70
2017-12-24T07:52:44.879Z,7.70
2017-12-24T07:55:11.279Z,7.70
2017-12-24T07:57:39.191Z,7.70
2017-12-24T08:00:05.788Z,7.70
2017-12-24T08:02:32.142Z,7.70
2017-12-24T08:04:59.372Z,7.70
2017-12-24T08:07:25.831Z,7.60
2017-12-24T08:09:53.640Z,7.70
2017-12-24T08:12:20.112Z,7.70
2017-12-24T08:14:46.617Z,7.70
2017-12-24T08:17:13.001Z,7.80
2017-12-24T08:19:39.453Z,7.80
2017-12-24T08:22:05.972Z,7.80
2017-12-24T08:24:34.299Z,7.80
2017-12-24T08:27:00.748Z,7.70
2017-12-24T08:29:30.748Z,7.80
2017-12-24T08:31:57.408Z,7.80
2017-12-24T08:34:24.003Z,7.70
2017-12-24T08:36:50.408Z,7.80
2017-12-24T08:39:16.839Z,7.80
2017-12-24T08:41:43.227Z,7.80
2017-12-24T08:44:10.469Z,7.80
2017-12-24T08:46:36.883Z,7.70
2017-12-24T08:49:04.011Z,7.70
2017-12-24T08:51:31.247Z,7.70
2017-12-24T08:53:58.059Z,7.80
2017-12-24T08:56:24.480Z,7.80
2017-12-24T08:58:50.912Z,7.80
2017-12-24T09:01:18.268Z,7.90
2017-12-24T09:03:45.475Z,7.80
2017-12-24T09:06:11.880Z,7.80
2017-12-24T09:08:38.283Z,7.90
2017-12-24T09:11:04.717Z,7.90
2017-12-24T09:13:31.916Z,7.80
2017-12-24T09:15:58.549Z,7.80
2017-12-24T09:18:25.015Z,7.80
2017-12-24T09:20:51.532Z,7.80
2017-12-24T09:23:18.699Z,7.90
2017-12-24T09:25:45.232Z,7.90
2017-12-24T09:28:11.687Z,7.90
2017-12-24T09:30:38.177Z,8.00
2017-12-24T09:33:04.828Z,8.00
2017-12-24T09:35:31.272Z,8.00
2017-12-24T09:37:57.864Z,8.00
2017-12-24T09:40:24.328Z,7.90
2017-12-24T09:42:51.528Z,8.10
2017-12-24T09:45:18.738Z,8.10
2017-12-24T09:47:46.127Z,8.10
2017-12-24T09:50:12.836Z,8.10
2017-12-24T09:52:39.293Z,8.10
2017-12-24T09:55:07.611Z,8.20
2017-12-24T09:57:34.086Z,8.10
2017-12-24T10:00:00.596Z,8.10
2017-12-24T10:02:27.160Z,8.10
2017-12-24T10:04:54.399Z,8.20
2017-12-24T10:07:20.864Z,8.20
2017-12-24T10:09:49.176Z,8.20
2017-12-24T10:12:16.256Z,8.20
2017-12-24T10:14:44.203Z,8.20
2017-12-24T10:17:10.784Z,8.20
2017-12-24T10:19:37.335Z,8.30
2017-12-24T10:22:05.671Z,8.30
2017-12-24T10:24:32.097Z,8.30
2017-12-24T10:26:58.515Z,8.30
2017-12-24T10:29:24.920Z,8.30
2017-12-24T10:31:52.683Z,8.30
2017-12-24T10:34:19.065Z,8.30
2017-12-24T10:36:45.703Z,8.40
2017-12-24T10:39:12.103Z,8.40
2017-12-24T10:41:38.512Z,8.50
2017-12-24T10:44:05.339Z,8.50
2017-12-24T10:46:31.696Z,8.50
2017-12-24T10:48:59.252Z,8.50
2017-12-24T10:51:26.433Z,8.50
2017-12-24T10:53:52.886Z,8.50
2017-12-24T10:56:19.299Z,8.50
2017-12-24T10:58:47.243Z,8.60
2017-12-24T11:01:14.477Z,8.70
2017-12-24T11:03:40.892Z,8.70
2017-12-24T11:06:07.400Z,8.70
2017-12-24T11:08:33.980Z,8.70
2017-12-24T11:11:00.354Z,8.80
2017-12-24T11:13:26.823Z,8.80
2017-12-24T11:15:54.038Z,8.70
2017-12-24T11:18:20.536Z,8.70
2017-12-24T11:20:46.968Z,9.00
2017-12-24T11:23:14.469Z,7.80
2017-12-24T11:25:41.808Z,8.80
2017-12-24T11:28:08.233Z,8.80
2017-12-24T11:30:37.413Z,8.90
2017-12-24T11:33:04.028Z,8.90
2017-12-24T11:35:30.451Z,8.90
2017-12-24T11:37:58.067Z,8.90
2017-12-24T11:40:24.512Z,9.00
2017-12-24T11:42:51.711Z,8.90
2017-12-24T11:45:18.188Z,8.60
2017-12-24T11:47:44.593Z,8.90
2017-12-24T11:50:11.081Z,8.90
2017-12-24T11:52:37.647Z,8.90
2017-12-24T11:55:04.304Z,8.50
2017-12-24T11:57:30.764Z,8.90
2017-12-24T11:59:57.958Z,8.80
2017-12-24T12:02:25.172Z,8.90
2017-12-24T12:04:51.645Z,8.80
2017-12-24T12:07:18.106Z,8.90
2017-12-24T12:09:45.284Z,8.90
2017-12-24T12:12:11.734Z,8.90
2017-12-24T12:14:38.258Z,8.70
2017-12-24T12:17:04.981Z,8.90
2017-12-24T12:19:31.425Z,9.00
2017-12-24T12:21:57.985Z,9.00
2017-12-24T12:24:24.439Z,9.00
2017-12-24T12:26:50.855Z,9.00
2017-12-24T12:29:19.497Z,9.10
2017-12-24T12:31:45.996Z,9.00
2017-12-24T12:34:12.489Z,9.10
2017-12-24T12:36:38.931Z,8.90
2017-12-24T12:39:05.429Z,9.00
2017-12-24T12:41:32.102Z,9.00
2017-12-24T12:43:58.552Z,9.00
2017-12-24T12:46:25.055Z,9.00
2017-12-24T12:48:51.556Z,9.00
2017-12-24T12:51:18.005Z,9.00
2017-12-24T12:53:44.488Z,8.80
2017-12-24T12:56:10.920Z,9.10
2017-12-24T12:58:37.652Z,9.10
2017-12-24T13:01:04.379Z,9.10
2017-12-24T13:03:30.879Z,9.40
2017-12-24T13:05:57.349Z,9.10
2017-12-24T13:08:23.856Z,9.10
2017-12-24T13:10:50.296Z,9.00
2017-12-24T13:13:16.759Z,9.10
2017-12-24T13:15:43.271Z,9.10
2017-12-24T13:18:10.444Z,9.10
2017-12-24T13:20:37.745Z,9.10
2017-12-24T13:23:05.003Z,9.10
2017-12-24T13:25:31.434Z,9.10
2017-12-24T13:27:58.679Z,9.10
2017-12-24T13:30:25.092Z,9.10
2017-12-24T13:32:58.462Z,9.10
2017-12-24T13:35:25.039Z,9.10
2017-12-24T13:37:51.733Z,9.10
2017-12-24T13:40:18.175Z,9.10
2017-12-24T13:42:45.340Z,9.10
2017-12-24T13:45:12.204Z,9.10
2017-12-24T13:47:38.634Z,9.10
2017-12-24T13:50:05.837Z,9.10
2017-12-24T13:52:32.288Z,9.00
2017-12-24T13:54:58.812Z,9.10
2017-12-24T13:57:25.409Z,9.00
2017-12-24T13:59:51.914Z,9.10
2017-12-24T14:02:18.384Z,9.00
2017-12-24T14:04:44.841Z,9.00
2017-12-24T14:07:12.419Z,8.90
2017-12-24T14:09:38.919Z,9.00
2017-12-24T14:12:06.341Z,9.00
2017-12-24T14:14:32.786Z,9.00
2017-12-24T14:16:59.312Z,9.00
2017-12-24T14:19:25.786Z,8.90
2017-12-24T14:21:52.216Z,8.90
2017-12-24T14:24:19.421Z,8.80
2017-12-24T14:26:46.591Z,8.80
2017-12-24T14:29:13.107Z,8.80
2017-12-24T14:31:39.763Z,8.90
2017-12-24T14:34:06.557Z,8.80
2017-12-24T14:36:33.036Z,9.20
2017-12-24T14:39:00.100Z,8.80
2017-12-24T14:41:26.522Z,8.80
2017-12-24T14:43:53.073Z,8.80
2017-12-24T14:46:19.563Z,8.80
2017-12-24T14:48:46.080Z,8.80
2017-12-24T14:51:13.834Z,8.80
2017-12-24T14:53:40.243Z,8.80
2017-12-24T14:56:07.262Z,8.80
2017-12-24T14:58:33.802Z,8.80
2017-12-24T15:01:00.228Z,8.70
2017-12-24T15:03:27.522Z,8.80
2017-12-24T15:05:56.151Z,8.70
2017-12-24T15:10:56.528Z,8.60
2017-12-24T15:13:23.017Z,8.60
2017-12-24T15:15:49.684Z,8.60
2017-12-24T15:18:16.157Z,8.60
2017-12-24T15:20:42.605Z,8.60
2017-12-24T15:23:09.104Z,8.60
2017-12-24T15:25:35.629Z,8.50
2017-12-24T15:28:06.100Z,8.40
2017-12-24T15:30:32.645Z,8.40
2017-12-24T15:32:59.772Z,8.30
2017-12-24T15:35:26.318Z,8.40
2017-12-24T15:37:52.778Z,8.30
2017-12-24T15:40:21.201Z,8.30
2017-12-24T15:42:49.197Z,8.20
2017-12-24T15:45:16.412Z,8.30
2017-12-24T15:47:42.855Z,8.20
2017-12-24T15:50:09.385Z,8.20
2017-12-24T15:52:35.842Z,8.20
2017-12-24T15:55:02.305Z,8.20
2017-12-24T15:57:28.786Z,8.10
2017-12-24T15:59:55.218Z,8.20
2017-12-24T16:02:22.532Z,8.10
2017-12-24T16:04:48.969Z,8.10
2017-12-24T16:07:15.545Z,8.20
2017-12-24T16:09:43.451Z,8.20
2017-12-24T16:12:09.837Z,8.20
2017-12-24T16:14:36.235Z,8.30
2017-12-24T16:17:02.700Z,8.30
2017-12-24T16:19:29.256Z,8.20
2017-12-24T16:21:55.671Z,8.40
2017-12-24T16:24:22.039Z,8.50
2017-12-24T16:26:48.413Z,8.50
2017-12-24T16:29:14.811Z,8.40
2017-12-24T16:31:41.177Z,8.20
2017-12-24T16:34:07.559Z,8.60
2017-12-24T16:36:33.952Z,8.60
2017-12-24T16:39:00.303Z,8.30
2017-12-24T16:41:27.394Z,8.60
2017-12-24T16:43:54.510Z,8.50
2017-12-24T16:46:21.486Z,8.50
2017-12-24T16:48:47.816Z,8.50
2017-12-24T16:51:14.160Z,8.50
2017-12-24T16:53:41.270Z,8.50
2017-12-24T16:56:07.620Z,8.30
2017-12-24T16:58:33.981Z,8.60
2017-12-24T17:01:00.368Z,8.60
2017-12-24T17:03:27.540Z,8.60
2017-12-24T17:05:53.853Z,8.50
2017-12-24T17:08:20.184Z,8.50
2017-12-24T17:10:46.536Z,8.60
2017-12-24T17:13:12.866Z,8.70
2017-12-24T17:15:39.286Z,8.70
2017-12-24T17:18:06.023Z,8.70
2017-12-24T17:20:33.087Z,8.60
2017-12-24T17:22:59.458Z,8.50
2017-12-24T17:25:25.836Z,8.60
2017-12-24T17:28:07.100Z,8.50
2017-12-24T17:30:33.508Z,8.20
2017-12-24T17:33:00.612Z,8.60
2017-12-24T17:35:27.000Z,8.60
2017-12-24T17:37:53.367Z,8.60
2017-12-24T17:40:19.744Z,8.30
2017-12-24T17:42:46.151Z,8.50
2017-12-24T17:45:13.244Z,8.50
2017-12-24T17:47:39.621Z,8.50
2017-12-24T17:50:06.497Z,8.50
2017-12-24T17:52:32.885Z,8.50
2017-12-24T17:54:59.288Z,8.50
2017-12-24T17:57:26.388Z,8.60
2017-12-24T17:59:52.781Z,8.60
2017-12-24T18:02:19.880Z,8.50
2017-12-24T18:04:46.268Z,8.50
2017-12-24T18:07:12.628Z,8.60
2017-12-24T18:09:39.772Z,8.50
2017-12-24T18:12:06.157Z,8.40
2017-12-24T18:14:32.552Z,8.50
2017-12-24T18:16:58.896Z,8.40
2017-12-24T18:19:25.307Z,8.40
2017-12-24T18:21:51.724Z,8.40
2017-12-24T18:24:18.387Z,8.40
2017-12-24T18:26:44.780Z,8.40
2017-12-24T18:29:11.184Z,8.40
2017-12-24T18:31:37.557Z,8.50
2017-12-24T18:34:04.808Z,8.50
2017-12-24T18:36:31.227Z,8.50
2017-12-24T18:38:57.555Z,8.50
2017-12-24T18:41:23.900Z,8.50
2017-12-24T18:43:50.212Z,8.50
2017-12-24T18:46:16.560Z,7.40
2017-12-24T18:48:43.716Z,8.40
2017-12-24T18:51:10.923Z,8.40
2017-12-24T18:53:37.275Z,8.40
2017-12-24T18:56:04.350Z,8.50
2017-12-24T18:58:30.728Z,8.50
2017-12-24T19:00:57.875Z,8.50
2017-12-24T19:03:24.212Z,8.50
2017-12-24T19:05:50.563Z,8.70
2017-12-24T19:08:16.895Z,8.50
2017-12-24T19:10:43.277Z,8.60
2017-12-24T19:13:10.378Z,8.60
2017-12-24T19:15:36.720Z,8.60
2017-12-24T19:18:03.587Z,8.70
2017-12-24T19:20:31.417Z,8.60
2017-12-24T19:22:58.494Z,8.70
2017-12-24T19:25:24.867Z,8.70
2017-12-24T19:27:51.201Z,8.70
2017-12-24T19:30:17.563Z,8.60
2017-12-24T19:32:43.984Z,8.60
2017-12-24T19:35:10.371Z,8.60
2017-12-24T19:37:36.741Z,8.50
2017-12-24T19:40:03.639Z,8.70
2017-12-24T19:42:30.106Z,8.70
2017-12-24T19:44:56.465Z,8.70
2017-12-24T19:47:22.843Z,8.70
2017-12-24T19:49:49.196Z,8.70
2017-12-24T19:52:15.672Z,8.70
2017-12-24T19:54:42.088Z,8.70
2017-12-24T19:57:08.475Z,8.70
2017-12-24T19:59:34.836Z,8.70
2017-12-24T20:02:02.017Z,8.70
2017-12-24T20:04:28.432Z,8.60
2017-12-24T20:06:54.771Z,8.70
2017-12-24T20:09:21.217Z,8.70
2017-12-24T20:11:47.707Z,8.70
2017-12-24T20:14:14.117Z,8.70
2017-12-24T20:16:40.541Z,8.30
2017-12-24T20:19:06.938Z,8.70
2017-12-24T20:21:33.307Z,8.70
2017-12-24T20:23:59.796Z,8.70
2017-12-24T20:26:26.880Z,8.70
2017-12-24T20:28:53.294Z,8.70
2017-12-24T20:31:19.782Z,8.70
2017-12-24T20:33:46.187Z,8.70
2017-12-24T20:36:12.651Z,8.70
2017-12-24T20:38:39.872Z,8.70
2017-12-24T20:41:07.161Z,8.70
2017-12-24T20:43:33.594Z,8.70
2017-12-24T20:46:00.037Z,8.70
2017-12-24T20:48:27.223Z,8.60
2017-12-24T20:50:54.414Z,8.60
2017-12-24T20:53:20.800Z,8.60
2017-12-24T20:55:47.226Z,8.60
2017-12-24T20:58:13.620Z,8.60
2017-12-24T21:00:40.061Z,8.70
2017-12-24T21:03:06.506Z,8.70
2017-12-24T21:05:32.868Z,8.70
2017-12-24T21:07:59.309Z,7.80
2017-12-24T21:10:25.816Z,8.60
2017-12-24T21:12:52.209Z,8.60
2017-12-24T21:15:18.675Z,8.50
2017-12-24T21:17:45.095Z,8.60
2017-12-24T21:20:11.535Z,8.60
2017-12-24T21:22:38.682Z,8.60
2017-12-24T21:25:05.914Z,8.60
2017-12-24T21:27:33.054Z,8.60
2017-12-24T21:29:59.436Z,8.60
2017-12-24T21:32:25.830Z,8.60
2017-12-24T21:34:52.244Z,8.70
2017-12-24T21:37:19.426Z,8.70
2017-12-24T21:39:45.828Z,8.70
2017-12-24T21:42:12.208Z,8.80
2017-12-24T21:44:38.641Z,8.80
2017-12-24T21:47:05.791Z,8.70
2017-12-24T21:49:32.253Z,8.60
2017-12-24T21:51:59.409Z,8.70
2017-12-24T21:54:25.827Z,8.60
2017-12-24T21:56:52.278Z,8.60
2017-12-24T21:59:19.523Z,8.50
2017-12-24T22:01:45.909Z,8.60
2017-12-24T22:04:12.317Z,8.50
2017-12-24T22:06:38.743Z,8.50
2017-12-24T22:09:05.463Z,8.50
2017-12-24T22:11:32.621Z,8.40
2017-12-24T22:13:59.042Z,8.40
2017-12-24T22:16:25.454Z,8.20
2017-12-24T22:18:52.624Z,8.40
2017-12-24T22:21:18.985Z,8.40
2017-12-24T22:23:45.353Z,8.40
2017-12-24T22:26:11.818Z,8.40
2017-12-24T22:28:38.159Z,8.40
2017-12-24T22:31:04.951Z,8.40
2017-12-24T22:33:32.133Z,8.40
2017-12-24T22:35:58.459Z,8.40
2017-12-24T22:38:25.614Z,8.50
2017-12-24T22:40:52.004Z,8.40
2017-12-24T22:43:19.132Z,8.60
2017-12-24T22:45:45.607Z,8.60
2017-12-24T22:48:12.682Z,8.60
2017-12-24T22:50:39.792Z,8.60
2017-12-24T22:53:06.119Z,8.60
2017-12-24T22:55:32.490Z,8.60
2017-12-24T22:57:59.606Z,8.60
2017-12-24T23:00:26.119Z,8.50
2017-12-24T23:02:53.220Z,8.60
2017-12-24T23:05:19.630Z,8.50
2017-12-24T23:07:45.997Z,8.50
2017-12-24T23:10:12.385Z,8.70
2017-12-24T23:12:38.716Z,8.60
2017-12-24T23:15:05.119Z,8.70
2017-12-24T23:17:31.428Z,8.50
2017-12-24T23:19:58.557Z,8.30
2017-12-24T23:22:24.941Z,8.40
2017-12-24T23:24:52.103Z,8.30
2017-12-24T23:27:19.211Z,8.30
2017-12-24T23:29:45.626Z,8.30
2017-12-24T23:32:12.065Z,8.30
2017-12-24T23:34:38.407Z,8.30
2017-12-24T23:37:04.877Z,8.30
2017-12-24T23:39:31.283Z,8.40
2017-12-24T23:41:58.384Z,8.30
2017-12-24T23:44:24.756Z,8.30
2017-12-24T23:46:51.149Z,8.30
2017-12-24T23:49:17.533Z,8.30
2017-12-24T23:51:43.951Z,8.30
2017-12-24T23:54:10.288Z,8.30
2017-12-24T23:56:36.701Z,8.20
2017-12-24T23:59:03.887Z,8.20
